createdAt,value
2022-07-31T00:00:16.345Z,101372.56
2022-07-31T00:02:46.792Z,101373.34
2022-07-31T00:05:16.352Z,101383.75
2022-07-31T00:07:46.221Z,101376.72
2022-07-31T00:10:15.789Z,101376.63
2022-07-31T00:12:45.768Z,101380.13
2022-07-31T00:15:17.856Z,101364.56
2022-07-31T00:17:47.894Z,101369.84
2022-07-31T00:20:19.547Z,101361.91
2022-07-31T00:22:50.648Z,101360.25
2022-07-31T00:25:21.202Z,101371.25
2022-07-31T00:27:50.648Z,101366.09
2022-07-31T00:30:22.767Z,101370.16
2022-07-31T00:32:52.593Z,101364.19
2022-07-31T00:35:22.149Z,101377.25
2022-07-31T00:37:54.797Z,101373.63
2022-07-31T00:40:31.841Z,101362.38
2022-07-31T00:43:01.327Z,101365.91
2022-07-31T00:45:33.463Z,101363.34
2022-07-31T00:48:03.966Z,101362.38
2022-07-31T00:50:34.010Z,101358.84
2022-07-31T00:53:03.632Z,101354.44
2022-07-31T00:55:33.301Z,101358.78
2022-07-31T00:58:21.084Z,101347.38
2022-07-31T01:00:53.211Z,101344.75
2022-07-31T01:03:22.917Z,101347.41
2022-07-31T01:05:52.430Z,101351.00
2022-07-31T01:08:21.914Z,101349.09
2022-07-31T01:11:01.931Z,101352.44
2022-07-31T01:13:35.941Z,101358.78
2022-07-31T01:16:09.119Z,101356.97
2022-07-31T01:18:40.073Z,101360.53
2022-07-31T01:21:11.734Z,101362.66
2022-07-31T01:23:55.086Z,101355.16
2022-07-31T01:26:36.113Z,101363.75
2022-07-31T01:29:17.138Z,101370.91
2022-07-31T01:31:49.287Z,101372.69
2022-07-31T01:34:38.269Z,101374.75
2022-07-31T01:37:11.812Z,101370.25
2022-07-31T01:39:45.471Z,101372.59
2022-07-31T01:42:17.429Z,101370.91
2022-07-31T01:44:54.230Z,101374.41
2022-07-31T01:47:24.630Z,101375.19
2022-07-31T01:49:56.155Z,101386.25
2022-07-31T01:52:27.857Z,101380.66
2022-07-31T01:54:58.558Z,101381.31
2022-07-31T01:57:29.585Z,101374.59
2022-07-31T02:00:23.529Z,101377.66
2022-07-31T02:03:09.788Z,101375.69
2022-07-31T02:05:41.389Z,101369.59
2022-07-31T02:08:12.597Z,101370.22
2022-07-31T02:10:42.705Z,101367.56
2022-07-31T02:13:13.469Z,101370.84
2022-07-31T02:15:45.962Z,101369.19
2022-07-31T02:18:15.477Z,101362.22
2022-07-31T02:20:45.426Z,101361.53
2022-07-31T02:23:15.876Z,101368.47
2022-07-31T02:25:46.266Z,101365.16
2022-07-31T02:28:20.362Z,101364.34
2022-07-31T02:30:52.936Z,101365.13
2022-07-31T02:33:24.159Z,101369.38
2022-07-31T02:35:56.806Z,101367.41
2022-07-31T02:38:28.914Z,101365.81
2022-07-31T02:41:00.676Z,101364.75
2022-07-31T02:43:30.755Z,101361.91
2022-07-31T02:46:02.974Z,101362.78
2022-07-31T02:48:32.668Z,101363.69
2022-07-31T02:51:02.473Z,101357.88
2022-07-31T02:53:33.267Z,101355.84
2022-07-31T02:56:04.635Z,101358.59
2022-07-31T02:58:34.265Z,101363.09
2022-07-31T03:01:08.350Z,101354.78
2022-07-31T03:03:38.053Z,101356.25
2022-07-31T03:06:07.687Z,101356.69
2022-07-31T03:08:37.397Z,101365.09
2022-07-31T03:11:06.872Z,101370.25
2022-07-31T03:13:37.982Z,101378.06
2022-07-31T03:16:12.358Z,101382.66
2022-07-31T03:18:42.890Z,101373.53
2022-07-31T03:21:12.942Z,101369.81
2022-07-31T03:23:42.685Z,101368.78
2022-07-31T03:26:15.140Z,101362.84
2022-07-31T03:28:45.310Z,101361.69
2022-07-31T03:31:17.359Z,101360.16
2022-07-31T03:33:46.813Z,101365.53
2022-07-31T03:36:16.293Z,101367.56
2022-07-31T03:38:50.371Z,101356.28
2022-07-31T03:41:20.308Z,101359.81
2022-07-31T03:43:50.789Z,101356.41
2022-07-31T03:46:24.358Z,101370.75
2022-07-31T03:48:54.476Z,101366.28
2022-07-31T03:51:24.274Z,101363.91
2022-07-31T03:53:54.265Z,101359.28
2022-07-31T03:56:24.453Z,101357.31
2022-07-31T03:58:54.034Z,101365.69
2022-07-31T04:01:27.274Z,101363.91
2022-07-31T04:04:16.693Z,101359.50
2022-07-31T04:06:46.476Z,101364.78
2022-07-31T04:09:19.065Z,101360.22
2022-07-31T04:11:48.686Z,101357.19
2022-07-31T04:14:18.183Z,101373.75
2022-07-31T04:16:50.298Z,101369.81
2022-07-31T04:19:19.756Z,101382.56
2022-07-31T04:21:50.422Z,101379.81
2022-07-31T04:24:21.782Z,101379.91
2022-07-31T04:26:51.671Z,101368.88
2022-07-31T04:29:21.262Z,101372.28
2022-07-31T04:31:53.455Z,101365.69
2022-07-31T04:34:22.986Z,101369.44
2022-07-31T04:36:52.494Z,101376.94
2022-07-31T04:39:21.981Z,101373.50
2022-07-31T04:41:51.982Z,101373.66
2022-07-31T04:44:21.535Z,101372.88
2022-07-31T04:46:53.625Z,101389.50
2022-07-31T04:49:23.174Z,101393.13
2022-07-31T04:51:53.059Z,101389.13
2022-07-31T04:54:22.666Z,101394.53
2022-07-31T04:56:52.187Z,101390.41
2022-07-31T04:59:23.230Z,101384.50
2022-07-31T05:01:55.452Z,101386.63
2022-07-31T05:04:26.479Z,101387.66
2022-07-31T05:06:56.122Z,101391.25
2022-07-31T05:09:30.171Z,101400.84
2022-07-31T05:12:02.028Z,101398.31
2022-07-31T05:14:31.871Z,101405.50
2022-07-31T05:17:03.930Z,101397.81
2022-07-31T05:19:33.455Z,101397.81
2022-07-31T05:22:05.425Z,101394.47
2022-07-31T05:24:35.241Z,101396.25
2022-07-31T05:27:05.193Z,101392.97
2022-07-31T05:29:35.915Z,101393.81
2022-07-31T05:32:08.794Z,101385.88
2022-07-31T05:34:38.282Z,101393.59
2022-07-31T05:37:08.035Z,101393.47
2022-07-31T05:39:37.533Z,101399.53
2022-07-31T05:42:07.896Z,101403.00
2022-07-31T05:44:37.703Z,101399.59
2022-07-31T05:47:12.196Z,101400.41
2022-07-31T05:49:41.683Z,101399.78
2022-07-31T05:52:11.459Z,101401.75
2022-07-31T05:54:40.952Z,101397.75
2022-07-31T05:57:10.535Z,101401.59
2022-07-31T05:59:40.035Z,101412.25
2022-07-31T06:02:12.183Z,101408.44
2022-07-31T06:04:41.657Z,101415.69
2022-07-31T06:07:11.159Z,101416.81
2022-07-31T06:09:41.675Z,101425.09
2022-07-31T06:12:12.106Z,101428.16
2022-07-31T06:14:41.587Z,101439.81
2022-07-31T06:17:13.775Z,101448.72
2022-07-31T06:19:43.291Z,101455.91
2022-07-31T06:22:12.837Z,101448.28
2022-07-31T06:24:42.565Z,101447.94
2022-07-31T06:27:18.763Z,101456.94
2022-07-31T06:30:03.062Z,101456.09
2022-07-31T06:32:35.239Z,101456.38
2022-07-31T06:35:05.662Z,101454.91
2022-07-31T06:37:35.170Z,101451.78
2022-07-31T06:40:04.826Z,101442.91
2022-07-31T06:42:34.445Z,101446.50
2022-07-31T06:45:03.931Z,101450.28
2022-07-31T06:47:36.024Z,101455.34
2022-07-31T06:50:05.917Z,101461.75
2022-07-31T06:52:35.616Z,101470.72
2022-07-31T06:55:05.122Z,101474.19
2022-07-31T06:57:34.731Z,101492.50
2022-07-31T07:00:15.017Z,101493.66
2022-07-31T07:02:52.933Z,101505.59
2022-07-31T07:05:22.466Z,101502.94
2022-07-31T07:07:51.961Z,101514.34
2022-07-31T07:10:21.465Z,101506.66
2022-07-31T07:12:51.013Z,101508.59
2022-07-31T07:15:20.889Z,101503.38
2022-07-31T07:17:52.972Z,101510.41
2022-07-31T07:20:22.888Z,101500.91
2022-07-31T07:22:52.491Z,101487.97
2022-07-31T07:25:22.471Z,101487.88
2022-07-31T07:27:52.005Z,101471.66
2022-07-31T07:30:21.601Z,101469.22
2022-07-31T07:32:53.767Z,101475.16
2022-07-31T07:35:23.378Z,101475.25
2022-07-31T07:37:52.858Z,101479.63
2022-07-31T07:40:23.446Z,101480.59
2022-07-31T07:42:53.161Z,101491.81
2022-07-31T07:45:22.626Z,101490.22
2022-07-31T07:48:06.705Z,101503.22
2022-07-31T07:50:37.273Z,101513.66
2022-07-31T07:53:06.807Z,101529.50
2022-07-31T07:55:37.717Z,101540.91
2022-07-31T07:58:11.875Z,101539.28
2022-07-31T08:00:41.749Z,101528.97
2022-07-31T08:03:49.636Z,101526.44
2022-07-31T08:06:03.378Z,101519.63
2022-07-31T08:08:32.902Z,101525.81
2022-07-31T08:11:03.569Z,101536.38
2022-07-31T08:13:33.218Z,101545.22
2022-07-31T08:16:02.714Z,101563.41
2022-07-31T08:18:34.781Z,101567.06
2022-07-31T08:21:04.255Z,101567.88
2022-07-31T08:23:33.839Z,101574.81
2022-07-31T08:26:04.441Z,101561.78
2022-07-31T08:28:36.251Z,101551.28
2022-07-31T08:31:06.217Z,101542.84
2022-07-31T08:33:38.294Z,101539.53
2022-07-31T08:36:09.190Z,101536.09
2022-07-31T08:38:39.238Z,101547.34
2022-07-31T08:41:08.787Z,101556.09
2022-07-31T08:44:01.890Z,101566.63
2022-07-31T08:46:28.687Z,101573.03
2022-07-31T08:49:01.209Z,101593.03
2022-07-31T08:51:31.242Z,101592.16
2022-07-31T08:54:02.460Z,101583.69
2022-07-31T08:56:32.203Z,101581.19
2022-07-31T08:59:01.916Z,101583.94
2022-07-31T09:01:31.999Z,101590.31
2022-07-31T09:04:04.493Z,101596.69
2022-07-31T09:06:33.962Z,101603.72
2022-07-31T09:09:03.498Z,101598.59
2022-07-31T09:11:34.065Z,101606.34
2022-07-31T09:14:04.843Z,101606.34
2022-07-31T09:16:34.611Z,101608.06
2022-07-31T09:19:52.786Z,101631.53
2022-07-31T09:21:57.538Z,101631.34
2022-07-31T09:24:31.674Z,101645.09
2022-07-31T09:27:08.687Z,101638.88
2022-07-31T09:29:39.343Z,101639.72
2022-07-31T09:32:13.726Z,101635.44
2022-07-31T09:34:46.320Z,101627.78
2022-07-31T09:37:17.179Z,101619.19
2022-07-31T09:39:52.790Z,101629.78
2022-07-31T09:42:23.347Z,101632.16
2022-07-31T09:44:53.682Z,101623.53
2022-07-31T09:47:26.835Z,101630.72
2022-07-31T09:50:00.985Z,101637.94
2022-07-31T09:52:32.324Z,101657.22
2022-07-31T09:55:15.015Z,101664.47
2022-07-31T09:57:54.812Z,101633.25
2022-07-31T10:00:24.924Z,101605.41
2022-07-31T10:02:56.540Z,101590.16
2022-07-31T10:05:31.512Z,101571.84
2022-07-31T10:08:01.819Z,101554.59
2022-07-31T10:10:32.772Z,101548.47
2022-07-31T10:13:05.042Z,101529.41
2022-07-31T10:15:36.301Z,101530.78
2022-07-31T10:18:08.587Z,101479.47
2022-07-31T10:20:42.423Z,101091.78
2022-07-31T10:23:16.571Z,100770.66
2022-07-31T10:25:53.472Z,100610.63
2022-07-31T10:28:24.511Z,100581.78
2022-07-31T10:30:54.399Z,100569.25
2022-07-31T10:33:48.942Z,100553.38
2022-07-31T10:36:19.653Z,100535.88
2022-07-31T10:38:54.884Z,100548.00
2022-07-31T10:41:31.819Z,100603.06
2022-07-31T10:44:03.937Z,100706.34
2022-07-31T10:46:34.898Z,100842.94
2022-07-31T10:49:08.235Z,100987.50
2022-07-31T10:51:49.510Z,101005.00
2022-07-31T10:54:19.302Z,101075.97
2022-07-31T10:56:49.507Z,101069.84
2022-07-31T10:59:19.066Z,101128.56
2022-07-31T11:01:52.589Z,101190.75
2022-07-31T11:04:29.262Z,101264.38
2022-07-31T11:07:01.829Z,101254.75
2022-07-31T11:09:31.937Z,101290.69
2022-07-31T11:12:01.668Z,101313.47
2022-07-31T11:14:35.159Z,101297.69
2022-07-31T11:17:05.064Z,101322.25
2022-07-31T11:19:41.767Z,101341.50
2022-07-31T11:22:31.840Z,101316.97
2022-07-31T11:25:01.982Z,101320.47
2022-07-31T11:27:34.437Z,101352.06
2022-07-31T11:30:13.203Z,101370.44
2022-07-31T11:32:43.557Z,101369.56
2022-07-31T11:35:13.347Z,101385.38
2022-07-31T11:37:57.769Z,101399.38
2022-07-31T11:40:28.541Z,101409.06
2022-07-31T11:43:25.314Z,101404.66
2022-07-31T11:45:49.839Z,101404.63
2022-07-31T11:48:20.734Z,101409.88
2022-07-31T11:50:51.212Z,101402.00
2022-07-31T11:53:23.935Z,101409.84
2022-07-31T11:55:54.600Z,101411.53
2022-07-31T11:58:26.139Z,101402.84
2022-07-31T12:00:57.197Z,101396.75
2022-07-31T12:03:31.877Z,101399.34
2022-07-31T12:06:01.593Z,101403.72
2022-07-31T12:08:34.921Z,101402.84
2022-07-31T12:11:05.822Z,101395.84
2022-07-31T12:13:35.345Z,101388.75
2022-07-31T12:16:06.307Z,101372.00
2022-07-31T12:18:37.280Z,101384.16
2022-07-31T12:21:07.874Z,101356.16
2022-07-31T12:23:49.693Z,101355.25
2022-07-31T12:26:26.248Z,101346.31
2022-07-31T12:29:02.842Z,101327.09
2022-07-31T12:31:34.177Z,101306.97
2022-07-31T12:34:03.688Z,101300.81
2022-07-31T12:36:33.171Z,101301.69
2022-07-31T12:39:06.869Z,101323.50
2022-07-31T12:41:44.797Z,101319.13
2022-07-31T12:44:15.202Z,101316.63
2022-07-31T12:46:51.827Z,101303.59
2022-07-31T12:49:21.553Z,101313.22
2022-07-31T12:51:51.159Z,101301.03
2022-07-31T12:54:23.236Z,101283.50
2022-07-31T12:56:52.719Z,101292.28
2022-07-31T12:59:22.199Z,101283.47
2022-07-31T13:01:51.902Z,101292.25
2022-07-31T13:04:21.392Z,101284.38
2022-07-31T13:06:52.044Z,101279.13
2022-07-31T13:09:24.239Z,101271.25
2022-07-31T13:11:57.703Z,101273.88
2022-07-31T13:14:28.205Z,101262.44
2022-07-31T13:16:58.291Z,101254.56
2022-07-31T13:19:28.460Z,101252.84
2022-07-31T13:21:58.059Z,101263.38
2022-07-31T13:24:30.547Z,101263.34
2022-07-31T13:27:01.608Z,101251.09
2022-07-31T13:29:31.287Z,101254.53
2022-07-31T13:32:00.919Z,101253.69
2022-07-31T13:34:30.540Z,101262.47
2022-07-31T13:37:00.036Z,101248.41
2022-07-31T13:39:32.070Z,101255.44
2022-07-31T13:42:01.663Z,101259.81
2022-07-31T13:44:33.269Z,101253.69
2022-07-31T13:47:03.227Z,101255.47
2022-07-31T13:49:34.712Z,101255.47
2022-07-31T13:52:04.688Z,101249.34
2022-07-31T13:54:36.934Z,101244.06
2022-07-31T13:57:06.984Z,101249.28
2022-07-31T13:59:36.521Z,101249.28
2022-07-31T14:02:06.196Z,101250.16
2022-07-31T14:04:38.839Z,101226.50
2022-07-31T14:07:09.417Z,101220.31
2022-07-31T14:09:51.398Z,101229.06
2022-07-31T14:12:24.945Z,101223.81
2022-07-31T14:14:54.454Z,101223.88
2022-07-31T14:17:24.075Z,101225.66
2022-07-31T14:19:53.661Z,101217.78
2022-07-31T14:22:23.202Z,101222.19
2022-07-31T14:24:55.578Z,101221.31
2022-07-31T14:27:25.057Z,101229.22
2022-07-31T14:29:54.610Z,101221.34
2022-07-31T14:32:25.276Z,101231.88
2022-07-31T14:34:54.919Z,101227.53
2022-07-31T14:37:24.424Z,101220.53
2022-07-31T14:39:56.749Z,101217.94
2022-07-31T14:42:26.955Z,101207.41
2022-07-31T14:44:56.625Z,101201.28
2022-07-31T14:47:26.105Z,101191.66
2022-07-31T14:50:08.617Z,101151.34
2022-07-31T14:52:40.399Z,101076.03
2022-07-31T14:55:13.035Z,100942.03
2022-07-31T14:57:42.699Z,100532.34
2022-07-31T15:00:15.216Z,100301.69
2022-07-31T15:02:45.924Z,100333.41
2022-07-31T15:06:51.001Z,101173.06
2022-07-31T15:08:05.362Z,101428.41
2022-07-31T15:10:37.773Z,101428.28
2022-07-31T15:13:07.320Z,101368.66
2022-07-31T15:15:36.843Z,101332.50
2022-07-31T15:18:06.723Z,101305.00
2022-07-31T15:20:37.060Z,101272.28
2022-07-31T15:23:07.103Z,101244.06
2022-07-31T15:25:39.264Z,101184.38
2022-07-31T15:28:08.761Z,101158.81
2022-07-31T15:30:38.518Z,101140.22
2022-07-31T15:33:08.151Z,101125.06
2022-07-31T15:35:37.694Z,101121.28
2022-07-31T15:38:07.316Z,101120.31
2022-07-31T15:40:39.471Z,101114.16
2022-07-31T15:43:08.942Z,101110.63
2022-07-31T15:45:38.438Z,101106.25
2022-07-31T15:48:10.170Z,101089.59
2022-07-31T15:50:40.305Z,101076.50
2022-07-31T15:53:09.871Z,101060.97
2022-07-31T15:55:41.999Z,101049.66
2022-07-31T15:58:11.663Z,101051.47
2022-07-31T16:00:41.283Z,101042.75
2022-07-31T16:03:10.870Z,101041.06
2022-07-31T16:05:55.763Z,101049.91
2022-07-31T16:08:30.449Z,101054.28
2022-07-31T16:11:06.700Z,101046.34
2022-07-31T16:13:36.686Z,101056.00
2022-07-31T16:16:06.453Z,101051.56
2022-07-31T16:18:35.958Z,101045.63
2022-07-31T16:21:05.725Z,101031.66
2022-07-31T16:23:35.266Z,101024.69
2022-07-31T16:26:07.888Z,101029.03
2022-07-31T16:28:37.404Z,101022.13
2022-07-31T16:31:07.031Z,101017.06
2022-07-31T16:33:36.630Z,100996.09
2022-07-31T16:36:06.331Z,100989.09
2022-07-31T16:38:35.776Z,100980.34
2022-07-31T16:41:07.863Z,100973.41
2022-07-31T16:43:50.021Z,100969.91
2022-07-31T16:46:21.150Z,100968.25
2022-07-31T16:48:50.796Z,100953.41
2022-07-31T16:51:20.462Z,100959.50
2022-07-31T16:54:10.936Z,100949.00
2022-07-31T16:56:42.280Z,100949.06
2022-07-31T16:59:11.773Z,100943.84
2022-07-31T17:01:59.049Z,100937.66
2022-07-31T17:04:30.653Z,100935.09
2022-07-31T17:07:00.378Z,100923.66
2022-07-31T17:09:31.551Z,100920.22
2022-07-31T17:12:04.372Z,100918.50
2022-07-31T17:14:34.040Z,100916.63
2022-07-31T17:17:03.821Z,100909.69
2022-07-31T17:19:41.592Z,100899.28
2022-07-31T17:22:17.840Z,100892.31
2022-07-31T17:24:50.867Z,100874.88
2022-07-31T17:27:24.334Z,100863.97
2022-07-31T17:29:55.125Z,100852.44
2022-07-31T17:32:24.680Z,100859.38
2022-07-31T17:34:54.185Z,100861.97
2022-07-31T17:37:24.650Z,100880.22
2022-07-31T17:39:57.742Z,100902.72
2022-07-31T17:42:30.420Z,100909.66
2022-07-31T17:45:02.017Z,100914.66
2022-07-31T17:47:31.878Z,100916.25
2022-07-31T17:50:01.329Z,100925.72
2022-07-31T17:52:30.935Z,100941.34
2022-07-31T17:55:01.430Z,100947.38
2022-07-31T17:57:34.015Z,100954.94
2022-07-31T18:00:04.005Z,100952.44
2022-07-31T18:02:33.714Z,100948.16
2022-07-31T18:05:03.256Z,100948.28
2022-07-31T18:07:32.903Z,100954.94
2022-07-31T18:10:02.393Z,100948.91
2022-07-31T18:12:56.846Z,100945.59
2022-07-31T18:15:34.651Z,100940.50
2022-07-31T18:18:05.583Z,100937.63
2022-07-31T18:20:35.805Z,100936.94
2022-07-31T18:23:05.442Z,100916.19
2022-07-31T18:25:39.726Z,100896.22
2022-07-31T18:28:11.798Z,100882.34
2022-07-31T18:30:42.243Z,100872.69
2022-07-31T18:33:14.234Z,100850.97
2022-07-31T18:35:43.916Z,100842.34
2022-07-31T18:38:13.634Z,100836.19
2022-07-31T18:40:43.158Z,100818.75
2022-07-31T18:43:15.443Z,100810.88
2022-07-31T18:45:44.898Z,100799.47
2022-07-31T18:48:14.378Z,100782.00
2022-07-31T18:50:59.458Z,100773.22
2022-07-31T18:53:33.489Z,100766.25
2022-07-31T18:56:03.021Z,100760.09
2022-07-31T18:58:35.115Z,100752.28
2022-07-31T19:01:05.435Z,100741.81
2022-07-31T19:03:34.927Z,100738.44
2022-07-31T19:06:04.506Z,100727.09
2022-07-31T19:08:34.521Z,100724.47
2022-07-31T19:11:04.022Z,100725.38
2022-07-31T19:13:36.306Z,100712.41
2022-07-31T19:16:05.843Z,100711.63
2022-07-31T19:18:36.018Z,100699.59
2022-07-31T19:21:23.523Z,100689.22
2022-07-31T19:23:55.784Z,100684.78
2022-07-31T19:26:25.343Z,100689.13
2022-07-31T19:28:57.478Z,100696.81
2022-07-31T19:31:26.974Z,100695.00
2022-07-31T19:33:56.446Z,100694.94
2022-07-31T19:36:25.962Z,100692.31
2022-07-31T19:38:55.521Z,100687.94
2022-07-31T19:41:25.248Z,100699.16
2022-07-31T19:43:57.322Z,100689.69
2022-07-31T19:46:26.846Z,100686.69
2022-07-31T19:48:56.418Z,100672.19
2022-07-31T19:51:26.016Z,100672.88
2022-07-31T19:53:55.559Z,100664.25
2022-07-31T19:56:25.145Z,100663.50
2022-07-31T19:58:57.246Z,100656.00
2022-07-31T20:01:27.186Z,100645.34
2022-07-31T20:03:57.780Z,100636.78
2022-07-31T20:06:28.160Z,100622.78
2022-07-31T20:08:59.162Z,100624.28
2022-07-31T20:11:28.633Z,100630.09
2022-07-31T20:14:00.925Z,100647.34
2022-07-31T20:16:30.848Z,100658.56
2022-07-31T20:19:00.906Z,100668.13
2022-07-31T20:21:31.938Z,100678.56
2022-07-31T20:24:04.538Z,100674.19
2022-07-31T20:26:36.438Z,100681.06
2022-07-31T20:29:08.610Z,100687.97
2022-07-31T20:31:38.235Z,100679.28
2022-07-31T20:34:07.706Z,100677.56
2022-07-31T20:36:37.311Z,100678.41
2022-07-31T20:39:06.900Z,100675.03
2022-07-31T20:41:36.497Z,100670.66
2022-07-31T20:44:08.671Z,100668.00
2022-07-31T20:46:38.275Z,100660.91
2022-07-31T20:49:07.811Z,100657.44
2022-07-31T20:51:52.150Z,100646.84
2022-07-31T20:54:34.083Z,100650.28
2022-07-31T20:57:04.483Z,100641.50
2022-07-31T20:59:36.650Z,100646.72
2022-07-31T21:02:06.485Z,100639.78
2022-07-31T21:04:36.293Z,100628.47
2022-07-31T21:07:05.820Z,100630.19
2022-07-31T21:09:35.373Z,100630.22
2022-07-31T21:12:06.832Z,100624.09
2022-07-31T21:14:39.162Z,100623.25
2022-07-31T21:17:08.678Z,100618.94
2022-07-31T21:19:38.122Z,100606.81
2022-07-31T21:22:07.942Z,100606.75
2022-07-31T21:24:38.546Z,100600.72
2022-07-31T21:27:08.807Z,100595.50
2022-07-31T21:29:41.508Z,100600.69
2022-07-31T21:32:12.399Z,100589.44
2022-07-31T21:34:42.567Z,100588.53
2022-07-31T21:37:16.167Z,100581.63
2022-07-31T21:39:46.413Z,100578.19
2022-07-31T21:42:17.914Z,100582.47
2022-07-31T21:44:50.729Z,100586.03
2022-07-31T21:47:22.897Z,100573.81
2022-07-31T21:49:58.363Z,100576.41
2022-07-31T21:52:30.084Z,100581.63
2022-07-31T21:55:03.838Z,100570.31
2022-07-31T21:57:59.370Z,100566.84
2022-07-31T22:00:27.530Z,100561.72
2022-07-31T22:02:58.831Z,100555.69
2022-07-31T22:05:40.859Z,100552.16
2022-07-31T22:08:10.416Z,100556.50
2022-07-31T22:10:39.982Z,100560.84
2022-07-31T22:13:10.083Z,100554.75
2022-07-31T22:15:59.054Z,100560.88
2022-07-31T22:18:30.459Z,100559.13
2022-07-31T22:21:00.488Z,100553.03
2022-07-31T22:23:31.221Z,100559.13
2022-07-31T22:26:01.354Z,100548.69
2022-07-31T22:28:31.399Z,100540.00
2022-07-31T22:31:04.652Z,100538.31
2022-07-31T22:33:34.354Z,100530.47
2022-07-31T22:36:07.183Z,100536.53
2022-07-31T22:38:38.162Z,100528.75
2022-07-31T22:41:08.005Z,100527.91
2022-07-31T22:44:10.710Z,100522.69
2022-07-31T22:46:30.360Z,100521.84
2022-07-31T22:49:02.616Z,100530.59
2022-07-31T22:51:38.442Z,100528.84
2022-07-31T22:54:08.510Z,100517.59
2022-07-31T22:56:37.997Z,100514.13
2022-07-31T22:59:08.881Z,100508.91
2022-07-31T23:01:40.960Z,100515.88
2022-07-31T23:04:10.555Z,100512.38
2022-07-31T23:06:40.071Z,100503.69
2022-07-31T23:09:09.569Z,100508.97
2022-07-31T23:11:39.079Z,100508.13
2022-07-31T23:14:08.743Z,100501.19
2022-07-31T23:16:40.972Z,100515.97
2022-07-31T23:19:10.652Z,100510.78
2022-07-31T23:21:40.597Z,100515.06
2022-07-31T23:24:10.998Z,100518.56
2022-07-31T23:26:40.506Z,100511.63
2022-07-31T23:29:10.038Z,100512.50
2022-07-31T23:31:42.290Z,100512.50
2022-07-31T23:34:12.043Z,100514.25
2022-07-31T23:36:41.509Z,100510.69
2022-07-31T23:39:12.861Z,100516.81
2022-07-31T23:41:55.371Z,100514.19
2022-07-31T23:44:25.182Z,100515.97
2022-07-31T23:46:57.354Z,100508.91
2022-07-31T23:49:26.902Z,100508.03
2022-07-31T23:51:56.606Z,100501.97
2022-07-31T23:54:26.098Z,100502.00
2022-07-31T23:56:55.638Z,100500.22
2022-07-31T23:59:25.129Z,100496.75
